sensor_id;sensor_type;location;lat;lon;timestamp;temperature;humidity
22645;DHT22;11489;50.834;6.752;2024-02-15T00:01:39;12.40;98.20
22645;DHT22;11489;50.834;6.752;2024-02-15T00:04:05;12.50;98.30
22645;DHT22;11489;50.834;6.752;2024-02-15T00:06:31;12.50;98.30
22645;DHT22;11489;50.834;6.752;2024-02-15T00:08:57;12.50;98.30
22645;DHT22;11489;50.834;6.752;2024-02-15T00:11:23;12.50;98.30
22645;DHT22;11489;50.834;6.752;2024-02-15T00:13:49;12.50;98.30
22645;DHT22;11489;50.834;6.752;2024-02-15T00:16:15;12.50;98.20
22645;DHT22;11489;50.834;6.752;2024-02-15T00:18:40;12.50;98.20
22645;DHT22;11489;50.834;6.752;2024-02-15T00:21:06;12.50;98.10
22645;DHT22;11489;50.834;6.752;2024-02-15T00:23:32;12.50;98.10
22645;DHT22;11489;50.834;6.752;2024-02-15T00:25:58;12.50;98.10
22645;DHT22;11489;50.834;6.752;2024-02-15T00:28:24;12.50;98.10
22645;DHT22;11489;50.834;6.752;2024-02-15T00:30:52;12.50;98.10
22645;DHT22;11489;50.834;6.752;2024-02-15T00:33:18;12.50;98.10
22645;DHT22;11489;50.834;6.752;2024-02-15T00:35:43;12.50;98.10
22645;DHT22;11489;50.834;6.752;2024-02-15T00:38:09;12.50;98.20
22645;DHT22;11489;50.834;6.752;2024-02-15T00:40:35;12.50;98.10
22645;DHT22;11489;50.834;6.752;2024-02-15T00:43:01;12.50;98.10
22645;DHT22;11489;50.834;6.752;2024-02-15T00:45:27;12.50;98.10
22645;DHT22;11489;50.834;6.752;2024-02-15T00:47:52;12.50;98.10
22645;DHT22;11489;50.834;6.752;2024-02-15T00:50:19;12.50;98.10
22645;DHT22;11489;50.834;6.752;2024-02-15T00:52:45;12.50;98.10
22645;DHT22;11489;50.834;6.752;2024-02-15T00:55:11;12.50;98.00
22645;DHT22;11489;50.834;6.752;2024-02-15T00:57:36;12.50;98.00
22645;DHT22;11489;50.834;6.752;2024-02-15T01:00:03;12.50;98.00
22645;DHT22;11489;50.834;6.752;2024-02-15T01:02:31;12.50;98.00
22645;DHT22;11489;50.834;6.752;2024-02-15T01:04:57;12.40;98.00
22645;DHT22;11489;50.834;6.752;2024-02-15T01:07:24;12.40;98.00
22645;DHT22;11489;50.834;6.752;2024-02-15T01:09:53;12.40;98.10
22645;DHT22;11489;50.834;6.752;2024-02-15T01:12:19;12.40;98.10
22645;DHT22;11489;50.834;6.752;2024-02-15T01:14:46;12.40;98.10
22645;DHT22;11489;50.834;6.752;2024-02-15T01:17:13;12.40;98.10
22645;DHT22;11489;50.834;6.752;2024-02-15T01:19:39;12.40;98.10
22645;DHT22;11489;50.834;6.752;2024-02-15T01:22:05;12.40;98.10
22645;DHT22;11489;50.834;6.752;2024-02-15T01:24:31;12.40;98.20
22645;DHT22;11489;50.834;6.752;2024-02-15T01:26:58;12.40;98.10
22645;DHT22;11489;50.834;6.752;2024-02-15T01:29:24;12.40;98.20
22645;DHT22;11489;50.834;6.752;2024-02-15T01:31:53;12.40;98.10
22645;DHT22;11489;50.834;6.752;2024-02-15T01:34:19;12.40;98.10
22645;DHT22;11489;50.834;6.752;2024-02-15T01:36:48;12.40;98.00
22645;DHT22;11489;50.834;6.752;2024-02-15T01:39:13;12.40;97.90
22645;DHT22;11489;50.834;6.752;2024-02-15T01:41:39;12.40;97.90
22645;DHT22;11489;50.834;6.752;2024-02-15T01:44:05;12.40;97.90
22645;DHT22;11489;50.834;6.752;2024-02-15T01:46:32;12.30;97.90
22645;DHT22;11489;50.834;6.752;2024-02-15T01:48:58;12.30;97.90
22645;DHT22;11489;50.834;6.752;2024-02-15T01:51:25;12.30;97.80
22645;DHT22;11489;50.834;6.752;2024-02-15T01:53:53;12.20;97.90
22645;DHT22;11489;50.834;6.752;2024-02-15T01:56:22;12.20;97.90
22645;DHT22;11489;50.834;6.752;2024-02-15T01:58:48;12.20;97.90
22645;DHT22;11489;50.834;6.752;2024-02-15T02:01:14;12.20;98.00
22645;DHT22;11489;50.834;6.752;2024-02-15T02:03:40;12.10;98.00
22645;DHT22;11489;50.834;6.752;2024-02-15T02:06:07;12.20;98.10
22645;DHT22;11489;50.834;6.752;2024-02-15T02:08:33;12.10;98.10
22645;DHT22;11489;50.834;6.752;2024-02-15T02:10:59;12.10;98.10
22645;DHT22;11489;50.834;6.752;2024-02-15T02:13:24;12.20;98.10
22645;DHT22;11489;50.834;6.752;2024-02-15T02:15:50;12.20;98.20
22645;DHT22;11489;50.834;6.752;2024-02-15T02:18:17;12.10;98.20
22645;DHT22;11489;50.834;6.752;2024-02-15T02:20:42;12.10;98.20
22645;DHT22;11489;50.834;6.752;2024-02-15T02:23:13;12.10;98.20
22645;DHT22;11489;50.834;6.752;2024-02-15T02:25:40;12.10;98.10
22645;DHT22;11489;50.834;6.752;2024-02-15T02:28:08;12.10;98.20
22645;DHT22;11489;50.834;6.752;2024-02-15T02:30:34;12.20;98.20
22645;DHT22;11489;50.834;6.752;2024-02-15T02:33:00;12.20;98.20
22645;DHT22;11489;50.834;6.752;2024-02-15T02:35:27;12.20;98.20
22645;DHT22;11489;50.834;6.752;2024-02-15T02:37:56;12.10;98.10
22645;DHT22;11489;50.834;6.752;2024-02-15T02:40:22;12.10;98.00
22645;DHT22;11489;50.834;6.752;2024-02-15T02:42:52;12.10;97.90
22645;DHT22;11489;50.834;6.752;2024-02-15T02:45:19;12.10;97.70
22645;DHT22;11489;50.834;6.752;2024-02-15T02:47:48;12.10;97.60
22645;DHT22;11489;50.834;6.752;2024-02-15T02:50:14;12.00;97.60
22645;DHT22;11489;50.834;6.752;2024-02-15T02:52:40;11.90;97.60
22645;DHT22;11489;50.834;6.752;2024-02-15T02:55:06;11.90;97.70
22645;DHT22;11489;50.834;6.752;2024-02-15T02:57:36;11.90;97.80
22645;DHT22;11489;50.834;6.752;2024-02-15T03:00:06;11.90;97.90
22645;DHT22;11489;50.834;6.752;2024-02-15T03:02:41;11.80;97.90
22645;DHT22;11489;50.834;6.752;2024-02-15T03:05:07;11.80;97.90
22645;DHT22;11489;50.834;6.752;2024-02-15T03:07:37;11.80;97.80
22645;DHT22;11489;50.834;6.752;2024-02-15T03:10:07;11.80;97.80
22645;DHT22;11489;50.834;6.752;2024-02-15T03:12:39;11.70;97.60
22645;DHT22;11489;50.834;6.752;2024-02-15T03:15:06;11.70;97.60
22645;DHT22;11489;50.834;6.752;2024-02-15T03:17:40;11.70;97.70
22645;DHT22;11489;50.834;6.752;2024-02-15T03:20:10;11.60;97.70
22645;DHT22;11489;50.834;6.752;2024-02-15T03:22:38;11.60;97.70
22645;DHT22;11489;50.834;6.752;2024-02-15T03:25:05;11.50;97.70
22645;DHT22;11489;50.834;6.752;2024-02-15T03:27:36;11.50;97.80
22645;DHT22;11489;50.834;6.752;2024-02-15T03:30:06;11.50;97.80
22645;DHT22;11489;50.834;6.752;2024-02-15T03:32:32;11.40;97.90
22645;DHT22;11489;50.834;6.752;2024-02-15T03:34:58;11.40;98.00
22645;DHT22;11489;50.834;6.752;2024-02-15T03:37:26;11.40;98.00
22645;DHT22;11489;50.834;6.752;2024-02-15T03:39:52;11.40;98.10
22645;DHT22;11489;50.834;6.752;2024-02-15T03:42:18;11.40;98.20
22645;DHT22;11489;50.834;6.752;2024-02-15T03:44:44;11.40;98.20
22645;DHT22;11489;50.834;6.752;2024-02-15T03:47:10;11.40;98.20
22645;DHT22;11489;50.834;6.752;2024-02-15T03:49:38;11.40;98.20
22645;DHT22;11489;50.834;6.752;2024-02-15T03:52:05;11.40;98.20
22645;DHT22;11489;50.834;6.752;2024-02-15T03:54:31;11.40;98.20
22645;DHT22;11489;50.834;6.752;2024-02-15T03:56:57;11.40;98.20
22645;DHT22;11489;50.834;6.752;2024-02-15T03:59:23;11.40;98.20
22645;DHT22;11489;50.834;6.752;2024-02-15T04:01:53;11.40;98.20
22645;DHT22;11489;50.834;6.752;2024-02-15T04:04:19;11.40;98.30
22645;DHT22;11489;50.834;6.752;2024-02-15T04:06:51;11.40;98.30
22645;DHT22;11489;50.834;6.752;2024-02-15T04:09:17;11.40;98.30
22645;DHT22;11489;50.834;6.752;2024-02-15T04:11:47;11.40;98.30
22645;DHT22;11489;50.834;6.752;2024-02-15T04:14:16;11.40;98.30
22645;DHT22;11489;50.834;6.752;2024-02-15T04:16:44;11.40;98.30
22645;DHT22;11489;50.834;6.752;2024-02-15T04:19:10;11.40;98.40
22645;DHT22;11489;50.834;6.752;2024-02-15T04:21:36;11.40;98.40
22645;DHT22;11489;50.834;6.752;2024-02-15T04:24:02;11.50;98.40
22645;DHT22;11489;50.834;6.752;2024-02-15T04:26:28;11.50;98.40
22645;DHT22;11489;50.834;6.752;2024-02-15T04:28:56;11.50;98.40
22645;DHT22;11489;50.834;6.752;2024-02-15T04:31:22;11.50;98.40
22645;DHT22;11489;50.834;6.752;2024-02-15T04:33:55;11.50;98.30
22645;DHT22;11489;50.834;6.752;2024-02-15T04:36:21;11.50;98.20
22645;DHT22;11489;50.834;6.752;2024-02-15T04:38:53;11.50;98.20
22645;DHT22;11489;50.834;6.752;2024-02-15T04:41:20;11.50;98.10
22645;DHT22;11489;50.834;6.752;2024-02-15T04:43:49;11.50;98.10
22645;DHT22;11489;50.834;6.752;2024-02-15T04:46:15;11.50;98.10
22645;DHT22;11489;50.834;6.752;2024-02-15T04:48:43;11.40;98.00
22645;DHT22;11489;50.834;6.752;2024-02-15T04:51:10;11.40;97.90
22645;DHT22;11489;50.834;6.752;2024-02-15T04:53:38;11.40;97.90
22645;DHT22;11489;50.834;6.752;2024-02-15T04:56:07;11.40;97.90
22645;DHT22;11489;50.834;6.752;2024-02-15T04:58:40;11.40;98.00
22645;DHT22;11489;50.834;6.752;2024-02-15T05:01:14;11.40;98.00
22645;DHT22;11489;50.834;6.752;2024-02-15T05:03:44;11.30;97.90
22645;DHT22;11489;50.834;6.752;2024-02-15T05:06:10;11.30;98.00
22645;DHT22;11489;50.834;6.752;2024-02-15T05:08:38;11.30;98.00
22645;DHT22;11489;50.834;6.752;2024-02-15T05:11:12;11.30;98.20
22645;DHT22;11489;50.834;6.752;2024-02-15T05:13:43;11.30;98.20
22645;DHT22;11489;50.834;6.752;2024-02-15T05:16:10;11.30;98.30
22645;DHT22;11489;50.834;6.752;2024-02-15T05:18:36;11.30;98.30
22645;DHT22;11489;50.834;6.752;2024-02-15T05:21:04;11.30;98.40
22645;DHT22;11489;50.834;6.752;2024-02-15T05:23:30;11.30;98.40
22645;DHT22;11489;50.834;6.752;2024-02-15T05:25:55;11.30;98.40
22645;DHT22;11489;50.834;6.752;2024-02-15T05:28:22;11.30;98.40
22645;DHT22;11489;50.834;6.752;2024-02-15T05:31:11;11.30;98.40
22645;DHT22;11489;50.834;6.752;2024-02-15T05:33:38;11.40;98.10
22645;DHT22;11489;50.834;6.752;2024-02-15T05:36:08;11.40;98.50
22645;DHT22;11489;50.834;6.752;2024-02-15T05:38:34;11.40;98.50
22645;DHT22;11489;50.834;6.752;2024-02-15T05:41:00;11.40;98.50
22645;DHT22;11489;50.834;6.752;2024-02-15T05:43:26;11.40;98.50
22645;DHT22;11489;50.834;6.752;2024-02-15T05:45:51;11.40;98.50
22645;DHT22;11489;50.834;6.752;2024-02-15T05:48:18;11.40;98.50
22645;DHT22;11489;50.834;6.752;2024-02-15T05:50:44;11.50;98.50
22645;DHT22;11489;50.834;6.752;2024-02-15T05:53:09;11.50;98.50
22645;DHT22;11489;50.834;6.752;2024-02-15T05:55:35;11.50;98.50
22645;DHT22;11489;50.834;6.752;2024-02-15T05:58:03;11.50;98.40
22645;DHT22;11489;50.834;6.752;2024-02-15T06:00:29;11.50;98.40
22645;DHT22;11489;50.834;6.752;2024-02-15T06:02:56;11.50;98.40
22645;DHT22;11489;50.834;6.752;2024-02-15T06:05:21;11.50;98.40
22645;DHT22;11489;50.834;6.752;2024-02-15T06:07:47;11.50;98.40
22645;DHT22;11489;50.834;6.752;2024-02-15T06:10:13;11.60;98.40
22645;DHT22;11489;50.834;6.752;2024-02-15T06:12:40;11.60;98.40
22645;DHT22;11489;50.834;6.752;2024-02-15T06:15:07;11.60;98.40
22645;DHT22;11489;50.834;6.752;2024-02-15T06:17:41;11.60;98.40
22645;DHT22;11489;50.834;6.752;2024-02-15T06:20:11;11.60;98.40
22645;DHT22;11489;50.834;6.752;2024-02-15T06:22:40;11.60;98.40
22645;DHT22;11489;50.834;6.752;2024-02-15T06:25:06;11.60;98.40
22645;DHT22;11489;50.834;6.752;2024-02-15T06:27:34;11.60;98.50
22645;DHT22;11489;50.834;6.752;2024-02-15T06:30:02;11.60;98.40
22645;DHT22;11489;50.834;6.752;2024-02-15T06:32:46;11.70;98.50
22645;DHT22;11489;50.834;6.752;2024-02-15T06:35:31;11.70;98.50
22645;DHT22;11489;50.834;6.752;2024-02-15T06:38:15;11.70;98.50
22645;DHT22;11489;50.834;6.752;2024-02-15T06:41:00;11.70;98.50
22645;DHT22;11489;50.834;6.752;2024-02-15T06:43:26;11.70;98.50
22645;DHT22;11489;50.834;6.752;2024-02-15T06:45:51;11.70;98.50
22645;DHT22;11489;50.834;6.752;2024-02-15T06:48:17;11.80;98.50
22645;DHT22;11489;50.834;6.752;2024-02-15T06:50:43;11.80;98.50
22645;DHT22;11489;50.834;6.752;2024-02-15T06:53:08;11.80;98.50
22645;DHT22;11489;50.834;6.752;2024-02-15T06:55:34;11.80;98.40
22645;DHT22;11489;50.834;6.752;2024-02-15T06:58:02;11.90;98.40
22645;DHT22;11489;50.834;6.752;2024-02-15T07:00:27;11.90;98.30
22645;DHT22;11489;50.834;6.752;2024-02-15T07:02:55;11.90;98.30
22645;DHT22;11489;50.834;6.752;2024-02-15T07:05:21;11.90;98.30
22645;DHT22;11489;50.834;6.752;2024-02-15T07:07:49;11.90;98.30
22645;DHT22;11489;50.834;6.752;2024-02-15T07:10:15;11.90;98.30
22645;DHT22;11489;50.834;6.752;2024-02-15T07:12:42;11.90;98.30
22645;DHT22;11489;50.834;6.752;2024-02-15T07:15:09;11.90;98.30
22645;DHT22;11489;50.834;6.752;2024-02-15T07:17:35;11.90;98.30
22645;DHT22;11489;50.834;6.752;2024-02-15T07:20:05;11.90;98.20
22645;DHT22;11489;50.834;6.752;2024-02-15T07:22:32;12.00;98.30
22645;DHT22;11489;50.834;6.752;2024-02-15T07:24:57;12.00;98.30
22645;DHT22;11489;50.834;6.752;2024-02-15T07:27:23;12.00;98.30
22645;DHT22;11489;50.834;6.752;2024-02-15T07:29:52;12.00;98.30
22645;DHT22;11489;50.834;6.752;2024-02-15T07:32:18;12.00;98.30
22645;DHT22;11489;50.834;6.752;2024-02-15T07:34:44;12.00;98.30
22645;DHT22;11489;50.834;6.752;2024-02-15T07:37:11;12.00;98.30
22645;DHT22;11489;50.834;6.752;2024-02-15T07:39:38;12.10;98.30
22645;DHT22;11489;50.834;6.752;2024-02-15T07:42:05;12.10;98.30
22645;DHT22;11489;50.834;6.752;2024-02-15T07:44:34;12.10;98.30
22645;DHT22;11489;50.834;6.752;2024-02-15T07:47:02;12.10;98.30
22645;DHT22;11489;50.834;6.752;2024-02-15T07:49:28;12.20;98.40
22645;DHT22;11489;50.834;6.752;2024-02-15T07:51:54;12.10;98.30
22645;DHT22;11489;50.834;6.752;2024-02-15T07:54:20;12.20;98.30
22645;DHT22;11489;50.834;6.752;2024-02-15T07:56:47;12.20;98.30
22645;DHT22;11489;50.834;6.752;2024-02-15T07:59:14;12.20;98.30
22645;DHT22;11489;50.834;6.752;2024-02-15T08:01:42;12.20;98.20
22645;DHT22;11489;50.834;6.752;2024-02-15T08:04:09;12.20;98.20
22645;DHT22;11489;50.834;6.752;2024-02-15T08:06:34;12.20;98.20
22645;DHT22;11489;50.834;6.752;2024-02-15T08:09:02;12.20;98.20
22645;DHT22;11489;50.834;6.752;2024-02-15T08:11:31;12.20;98.20
22645;DHT22;11489;50.834;6.752;2024-02-15T08:13:56;12.20;98.20
22645;DHT22;11489;50.834;6.752;2024-02-15T08:16:25;12.20;98.20
22645;DHT22;11489;50.834;6.752;2024-02-15T08:18:54;12.30;98.30
22645;DHT22;11489;50.834;6.752;2024-02-15T08:21:27;12.30;98.30
22645;DHT22;11489;50.834;6.752;2024-02-15T08:24:02;12.30;98.20
22645;DHT22;11489;50.834;6.752;2024-02-15T08:26:37;12.30;98.30
22645;DHT22;11489;50.834;6.752;2024-02-15T08:29:04;12.30;98.30
22645;DHT22;11489;50.834;6.752;2024-02-15T08:31:30;12.30;98.30
22645;DHT22;11489;50.834;6.752;2024-02-15T08:33:57;12.40;98.30
22645;DHT22;11489;50.834;6.752;2024-02-15T08:36:23;12.40;98.30
22645;DHT22;11489;50.834;6.752;2024-02-15T08:38:51;12.40;98.30
22645;DHT22;11489;50.834;6.752;2024-02-15T08:41:17;12.40;98.30
22645;DHT22;11489;50.834;6.752;2024-02-15T08:43:44;12.50;98.30
22645;DHT22;11489;50.834;6.752;2024-02-15T08:46:11;12.50;98.30
22645;DHT22;11489;50.834;6.752;2024-02-15T08:48:38;12.50;98.70
22645;DHT22;11489;50.834;6.752;2024-02-15T08:51:04;12.50;98.40
22645;DHT22;11489;50.834;6.752;2024-02-15T08:53:31;12.60;98.50
22645;DHT22;11489;50.834;6.752;2024-02-15T08:55:57;12.60;98.60
22645;DHT22;11489;50.834;6.752;2024-02-15T08:58:23;12.60;98.60
22645;DHT22;11489;50.834;6.752;2024-02-15T09:00:49;12.70;98.70
22645;DHT22;11489;50.834;6.752;2024-02-15T09:03:14;12.80;98.80
22645;DHT22;11489;50.834;6.752;2024-02-15T09:05:40;12.90;98.80
22645;DHT22;11489;50.834;6.752;2024-02-15T09:08:07;12.90;98.90
22645;DHT22;11489;50.834;6.752;2024-02-15T09:10:33;13.00;99.00
22645;DHT22;11489;50.834;6.752;2024-02-15T09:12:58;13.10;99.10
22645;DHT22;11489;50.834;6.752;2024-02-15T09:15:24;13.20;99.00
22645;DHT22;11489;50.834;6.752;2024-02-15T09:17:50;13.30;98.90
22645;DHT22;11489;50.834;6.752;2024-02-15T09:20:17;13.40;98.90
22645;DHT22;11489;50.834;6.752;2024-02-15T09:22:50;13.50;98.90
22645;DHT22;11489;50.834;6.752;2024-02-15T09:25:17;13.60;99.20
22645;DHT22;11489;50.834;6.752;2024-02-15T09:27:43;13.70;99.00
22645;DHT22;11489;50.834;6.752;2024-02-15T09:30:10;13.80;99.00
22645;DHT22;11489;50.834;6.752;2024-02-15T09:32:36;13.90;99.10
22645;DHT22;11489;50.834;6.752;2024-02-15T09:35:02;14.00;99.00
22645;DHT22;11489;50.834;6.752;2024-02-15T09:37:28;14.10;99.00
22645;DHT22;11489;50.834;6.752;2024-02-15T09:39:55;14.30;99.00
22645;DHT22;11489;50.834;6.752;2024-02-15T09:42:21;14.40;99.10
22645;DHT22;11489;50.834;6.752;2024-02-15T09:44:47;14.50;99.00
22645;DHT22;11489;50.834;6.752;2024-02-15T09:47:15;14.60;98.80
22645;DHT22;11489;50.834;6.752;2024-02-15T09:49:43;14.80;98.60
22645;DHT22;11489;50.834;6.752;2024-02-15T09:52:09;14.90;98.60
22645;DHT22;11489;50.834;6.752;2024-02-15T09:54:41;15.00;98.50
22645;DHT22;11489;50.834;6.752;2024-02-15T09:57:11;15.10;98.50
22645;DHT22;11489;50.834;6.752;2024-02-15T09:59:38;15.20;98.20
22645;DHT22;11489;50.834;6.752;2024-02-15T10:02:05;15.20;98.00
22645;DHT22;11489;50.834;6.752;2024-02-15T10:04:39;15.20;97.70
22645;DHT22;11489;50.834;6.752;2024-02-15T10:07:04;15.30;97.60
22645;DHT22;11489;50.834;6.752;2024-02-15T10:09:31;15.30;97.50
22645;DHT22;11489;50.834;6.752;2024-02-15T10:11:59;15.30;97.50
22645;DHT22;11489;50.834;6.752;2024-02-15T10:14:26;15.40;97.50
22645;DHT22;11489;50.834;6.752;2024-02-15T10:16:53;15.30;97.50
22645;DHT22;11489;50.834;6.752;2024-02-15T10:19:22;15.40;97.60
22645;DHT22;11489;50.834;6.752;2024-02-15T10:21:54;15.40;97.50
22645;DHT22;11489;50.834;6.752;2024-02-15T10:24:23;15.40;97.10
22645;DHT22;11489;50.834;6.752;2024-02-15T10:27:03;15.50;97.30
22645;DHT22;11489;50.834;6.752;2024-02-15T10:29:30;15.50;96.90
22645;DHT22;11489;50.834;6.752;2024-02-15T10:31:57;15.50;97.30
22645;DHT22;11489;50.834;6.752;2024-02-15T10:34:27;15.50;97.40
22645;DHT22;11489;50.834;6.752;2024-02-15T10:37:13;15.60;97.40
22645;DHT22;11489;50.834;6.752;2024-02-15T10:39:39;15.60;96.50
22645;DHT22;11489;50.834;6.752;2024-02-15T10:42:09;15.60;97.40
22645;DHT22;11489;50.834;6.752;2024-02-15T10:44:38;15.70;97.50
22645;DHT22;11489;50.834;6.752;2024-02-15T10:47:07;15.70;97.40
22645;DHT22;11489;50.834;6.752;2024-02-15T10:49:34;15.70;97.50
22645;DHT22;11489;50.834;6.752;2024-02-15T10:52:02;15.80;97.70
22645;DHT22;11489;50.834;6.752;2024-02-15T10:57:15;16.00;97.40
22645;DHT22;11489;50.834;6.752;2024-02-15T10:59:54;16.10;97.80
22645;DHT22;11489;50.834;6.752;2024-02-15T11:02:29;16.30;96.90
22645;DHT22;11489;50.834;6.752;2024-02-15T11:05:05;16.30;97.60
22645;DHT22;11489;50.834;6.752;2024-02-15T11:07:34;16.40;97.20
22645;DHT22;11489;50.834;6.752;2024-02-15T11:10:01;16.50;97.30
22645;DHT22;11489;50.834;6.752;2024-02-15T11:12:29;16.60;97.40
22645;DHT22;11489;50.834;6.752;2024-02-15T11:14:56;16.60;97.10
22645;DHT22;11489;50.834;6.752;2024-02-15T11:20:06;16.80;95.70
22645;DHT22;11489;50.834;6.752;2024-02-15T11:22:36;16.80;97.00
22645;DHT22;11489;50.834;6.752;2024-02-15T11:25:03;16.90;97.10
22645;DHT22;11489;50.834;6.752;2024-02-15T11:27:38;17.00;96.90
22645;DHT22;11489;50.834;6.752;2024-02-15T11:30:05;17.10;96.80
22645;DHT22;11489;50.834;6.752;2024-02-15T11:32:49;17.20;96.80
22645;DHT22;11489;50.834;6.752;2024-02-15T11:35:21;17.30;96.50
22645;DHT22;11489;50.834;6.752;2024-02-15T11:40:17;17.50;97.00
22645;DHT22;11489;50.834;6.752;2024-02-15T11:42:44;17.60;97.00
22645;DHT22;11489;50.834;6.752;2024-02-15T11:45:10;17.80;96.80
22645;DHT22;11489;50.834;6.752;2024-02-15T11:47:37;17.90;96.80
22645;DHT22;11489;50.834;6.752;2024-02-15T11:50:08;18.10;96.50
22645;DHT22;11489;50.834;6.752;2024-02-15T11:52:38;18.20;96.10
22645;DHT22;11489;50.834;6.752;2024-02-15T11:55:06;18.30;96.00
22645;DHT22;11489;50.834;6.752;2024-02-15T11:57:37;18.40;95.90
22645;DHT22;11489;50.834;6.752;2024-02-15T12:00:25;18.50;95.70
22645;DHT22;11489;50.834;6.752;2024-02-15T12:03:10;18.60;94.50
22645;DHT22;11489;50.834;6.752;2024-02-15T12:05:56;18.60;95.10
22645;DHT22;11489;50.834;6.752;2024-02-15T12:08:44;18.60;94.80
22645;DHT22;11489;50.834;6.752;2024-02-15T12:11:29;18.60;94.50
22645;DHT22;11489;50.834;6.752;2024-02-15T12:14:14;18.60;95.00
22645;DHT22;11489;50.834;6.752;2024-02-15T12:17:04;18.70;95.10
22645;DHT22;11489;50.834;6.752;2024-02-15T12:19:51;18.70;95.10
22645;DHT22;11489;50.834;6.752;2024-02-15T12:25:13;18.90;94.70
22645;DHT22;11489;50.834;6.752;2024-02-15T12:27:43;19.00;92.60
22645;DHT22;11489;50.834;6.752;2024-02-15T12:30:14;19.10;94.40
22645;DHT22;11489;50.834;6.752;2024-02-15T12:32:40;19.10;94.20
22645;DHT22;11489;50.834;6.752;2024-02-15T12:35:14;19.10;94.50
22645;DHT22;11489;50.834;6.752;2024-02-15T12:40:37;19.20;92.80
22645;DHT22;11489;50.834;6.752;2024-02-15T12:43:07;19.20;92.90
22645;DHT22;11489;50.834;6.752;2024-02-15T12:45:36;19.20;93.40
22645;DHT22;11489;50.834;6.752;2024-02-15T12:48:06;19.10;93.60
22645;DHT22;11489;50.834;6.752;2024-02-15T12:50:33;19.10;92.90
22645;DHT22;11489;50.834;6.752;2024-02-15T12:53:02;19.10;93.60
22645;DHT22;11489;50.834;6.752;2024-02-15T12:55:29;19.00;93.30
22645;DHT22;11489;50.834;6.752;2024-02-15T12:58:21;18.90;93.10
22645;DHT22;11489;50.834;6.752;2024-02-15T13:00:46;18.90;93.00
22645;DHT22;11489;50.834;6.752;2024-02-15T13:03:12;18.80;92.90
22645;DHT22;11489;50.834;6.752;2024-02-15T13:05:40;18.70;92.70
22645;DHT22;11489;50.834;6.752;2024-02-15T13:08:06;18.60;92.80
22645;DHT22;11489;50.834;6.752;2024-02-15T13:10:36;18.50;92.60
22645;DHT22;11489;50.834;6.752;2024-02-15T13:13:02;18.40;92.60
22645;DHT22;11489;50.834;6.752;2024-02-15T13:15:28;18.30;92.50
22645;DHT22;11489;50.834;6.752;2024-02-15T13:17:59;18.20;92.50
22645;DHT22;11489;50.834;6.752;2024-02-15T13:20:25;18.10;92.60
22645;DHT22;11489;50.834;6.752;2024-02-15T13:22:59;18.00;92.70
22645;DHT22;11489;50.834;6.752;2024-02-15T13:25:37;17.90;92.90
22645;DHT22;11489;50.834;6.752;2024-02-15T13:28:05;17.90;92.40
22645;DHT22;11489;50.834;6.752;2024-02-15T13:30:31;17.80;92.80
22645;DHT22;11489;50.834;6.752;2024-02-15T13:32:58;17.80;92.90
22645;DHT22;11489;50.834;6.752;2024-02-15T13:35:23;17.80;93.00
22645;DHT22;11489;50.834;6.752;2024-02-15T13:37:50;17.80;93.00
22645;DHT22;11489;50.834;6.752;2024-02-15T13:40:26;17.80;93.00
22645;DHT22;11489;50.834;6.752;2024-02-15T13:42:59;17.80;93.00
22645;DHT22;11489;50.834;6.752;2024-02-15T13:47:59;17.80;92.60
22645;DHT22;11489;50.834;6.752;2024-02-15T13:50:28;17.80;93.10
22645;DHT22;11489;50.834;6.752;2024-02-15T13:52:54;17.80;92.70
22645;DHT22;11489;50.834;6.752;2024-02-15T13:55:20;17.90;92.70
22645;DHT22;11489;50.834;6.752;2024-02-15T13:57:47;17.80;92.70
22645;DHT22;11489;50.834;6.752;2024-02-15T14:00:14;17.80;92.30
22645;DHT22;11489;50.834;6.752;2024-02-15T14:02:59;17.70;92.30
22645;DHT22;11489;50.834;6.752;2024-02-15T14:05:26;17.70;91.90
22645;DHT22;11489;50.834;6.752;2024-02-15T14:08:07;17.60;92.40
22645;DHT22;11489;50.834;6.752;2024-02-15T14:10:35;17.70;91.80
22645;DHT22;11489;50.834;6.752;2024-02-15T14:13:02;17.60;92.30
22645;DHT22;11489;50.834;6.752;2024-02-15T14:15:29;17.60;92.40
22645;DHT22;11489;50.834;6.752;2024-02-15T14:17:55;17.50;92.40
22645;DHT22;11489;50.834;6.752;2024-02-15T14:20:22;17.50;92.40
22645;DHT22;11489;50.834;6.752;2024-02-15T14:22:50;17.40;92.40
22645;DHT22;11489;50.834;6.752;2024-02-15T14:25:22;17.40;92.40
22645;DHT22;11489;50.834;6.752;2024-02-15T14:27:48;17.40;92.50
22645;DHT22;11489;50.834;6.752;2024-02-15T14:30:14;17.40;92.60
22645;DHT22;11489;50.834;6.752;2024-02-15T14:32:58;17.40;92.60
22645;DHT22;11489;50.834;6.752;2024-02-15T14:35:34;17.30;92.60
22645;DHT22;11489;50.834;6.752;2024-02-15T14:38:07;17.30;92.30
22645;DHT22;11489;50.834;6.752;2024-02-15T14:40:40;17.40;92.30
22645;DHT22;11489;50.834;6.752;2024-02-15T14:43:06;17.40;92.60
22645;DHT22;11489;50.834;6.752;2024-02-15T14:45:40;17.30;92.50
22645;DHT22;11489;50.834;6.752;2024-02-15T14:48:09;17.30;92.60
22645;DHT22;11489;50.834;6.752;2024-02-15T14:50:42;17.30;92.60
22645;DHT22;11489;50.834;6.752;2024-02-15T14:53:08;17.30;92.20
22645;DHT22;11489;50.834;6.752;2024-02-15T14:55:34;17.30;92.40
22645;DHT22;11489;50.834;6.752;2024-02-15T14:58:00;17.20;92.50
22645;DHT22;11489;50.834;6.752;2024-02-15T15:00:26;17.20;92.40
22645;DHT22;11489;50.834;6.752;2024-02-15T15:02:53;17.20;92.50
22645;DHT22;11489;50.834;6.752;2024-02-15T15:05:22;17.20;92.60
22645;DHT22;11489;50.834;6.752;2024-02-15T15:08:06;17.10;92.50
22645;DHT22;11489;50.834;6.752;2024-02-15T15:10:51;17.10;92.50
22645;DHT22;11489;50.834;6.752;2024-02-15T15:13:35;17.10;92.50
22645;DHT22;11489;50.834;6.752;2024-02-15T15:16:02;17.10;92.40
22645;DHT22;11489;50.834;6.752;2024-02-15T15:18:33;17.00;92.30
22645;DHT22;11489;50.834;6.752;2024-02-15T15:20:59;16.90;92.30
22645;DHT22;11489;50.834;6.752;2024-02-15T15:23:28;16.90;92.40
22645;DHT22;11489;50.834;6.752;2024-02-15T15:25:58;16.90;92.00
22645;DHT22;11489;50.834;6.752;2024-02-15T15:28:24;16.90;92.20
22645;DHT22;11489;50.834;6.752;2024-02-15T15:30:50;16.80;92.70
22645;DHT22;11489;50.834;6.752;2024-02-15T15:33:16;16.80;92.50
22645;DHT22;11489;50.834;6.752;2024-02-15T15:35:43;16.80;92.50
22645;DHT22;11489;50.834;6.752;2024-02-15T15:38:10;16.80;92.50
22645;DHT22;11489;50.834;6.752;2024-02-15T15:40:35;16.70;92.40
22645;DHT22;11489;50.834;6.752;2024-02-15T15:43:01;16.70;92.30
22645;DHT22;11489;50.834;6.752;2024-02-15T15:45:33;16.70;92.40
22645;DHT22;11489;50.834;6.752;2024-02-15T15:47:59;16.60;92.50
22645;DHT22;11489;50.834;6.752;2024-02-15T15:50:26;16.60;92.50
22645;DHT22;11489;50.834;6.752;2024-02-15T15:52:53;16.70;92.60
22645;DHT22;11489;50.834;6.752;2024-02-15T15:55:19;16.60;92.50